Time;durP1;ratioP1;P1;durP2;ratioP2;P2;SDS_P1;SDS_P2;PMS_P1;PMS_P2;Temp;Humidity;BMP_temperature;BMP_pressure;BME280_temperature;BME280_humidity;BME280_pressure;Samples;Min_cycle;Max_cycle;Signal;HPM_P1;HPM_P2
2022/01/03 00:01:44;;;;;;;14.95;2.70;;;7.80;99.90;;;;;;4864594;29;20036;-81
2022/01/03 00:04:12;;;;;;;19.48;2.67;;;7.70;99.90;;;;;;4852365;29;20085;-82
2022/01/03 00:06:40;;;;;;;17.30;1.92;;;7.70;99.90;;;;;;4834142;29;20049;-81
2022/01/03 00:09:08;;;;;;;19.92;2.15;;;7.70;99.90;;;;;;4851747;29;20081;-82
2022/01/03 00:11:35;;;;;;;20.60;2.08;;;7.70;99.90;;;;;;4852356;29;20398;-81
2022/01/03 00:14:01;;;;;;;21.05;2.58;;;7.80;99.90;;;;;;4833808;29;20346;-81
2022/01/03 00:16:27;;;;;;;19.65;2.95;;;7.80;99.90;;;;;;4850451;29;20403;-82
2022/01/03 00:18:54;;;;;;;21.37;2.87;;;7.80;99.90;;;;;;4820044;29;20081;-81
2022/01/03 00:21:25;;;;;;;18.30;2.63;;;7.80;99.90;;;;;;4833088;29;20435;-82
2022/01/03 00:23:56;;;;;;;23.08;3.65;;;7.80;99.90;;;;;;4864764;29;20033;-81
2022/01/03 00:26:26;;;;;;;23.88;2.78;;;7.80;99.90;;;;;;4848160;29;20045;-81
2022/01/03 00:28:58;;;;;;;22.20;3.13;;;7.80;99.90;;;;;;4845231;29;20099;-81
2022/01/03 00:31:35;;;;;;;22.73;3.05;;;7.80;99.90;;;;;;4848110;29;20128;-81
2022/01/03 00:34:03;;;;;;;20.05;2.83;;;7.80;99.90;;;;;;4853725;29;20053;-81
2022/01/03 00:36:31;;;;;;;26.75;4.13;;;7.80;99.90;;;;;;4862483;29;20136;-81
2022/01/03 00:38:58;;;;;;;23.55;3.40;;;7.80;99.90;;;;;;4834077;29;20045;-83
2022/01/03 00:41:24;;;;;;;22.63;2.97;;;7.80;99.90;;;;;;4850710;29;20518;-81
2022/01/03 00:43:54;;;;;;;28.23;3.08;;;7.90;99.90;;;;;;4851589;29;20408;-81
2022/01/03 00:46:21;;;;;;;24.00;3.30;;;7.90;99.90;;;;;;4835598;29;20042;-81
2022/01/03 00:48:47;;;;;;;23.33;2.75;;;7.90;99.90;;;;;;4863591;29;20522;-81
2022/01/03 00:51:17;;;;;;;21.08;3.92;;;7.90;99.90;;;;;;4842395;29;20037;-81
2022/01/03 00:53:43;;;;;;;21.05;2.65;;;7.80;99.90;;;;;;4863177;29;20049;-81
2022/01/03 00:56:29;;;;;;;22.37;3.50;;;7.90;99.90;;;;;;4854192;29;20056;-82
2022/01/03 00:59:24;;;;;;;25.33;3.90;;;7.90;99.90;;;;;;4842559;29;20041;-82
2022/01/03 01:01:53;;;;;;;20.60;2.67;;;7.90;99.90;;;;;;4858594;29;20072;-83
2022/01/03 01:04:21;;;;;;;25.67;3.20;;;7.90;99.90;;;;;;4851783;29;20052;-82
2022/01/03 01:06:51;;;;;;;30.48;4.43;;;7.90;99.90;;;;;;4854404;29;20079;-82
2022/01/03 01:09:19;;;;;;;27.38;3.38;;;7.90;99.90;;;;;;4853010;29;20064;-82
2022/01/03 01:11:45;;;;;;;22.92;3.47;;;7.90;99.90;;;;;;4870476;29;20080;-82
2022/01/03 01:14:13;;;;;;;32.67;4.10;;;7.90;99.90;;;;;;4824485;29;20082;-83
2022/01/03 01:16:39;;;;;;;24.45;3.08;;;8.00;99.90;;;;;;4852345;29;20649;-81
2022/01/03 01:19:06;;;;;;;26.10;3.30;;;8.10;99.90;;;;;;4850768;29;20079;-81
2022/01/03 01:21:32;;;;;;;25.65;3.20;;;8.20;99.90;;;;;;4851023;29;20041;-82
2022/01/03 01:23:58;;;;;;;26.67;3.28;;;8.20;99.90;;;;;;4832463;29;20037;-84
2022/01/03 01:29:10;;;;;;;;;;;8.30;99.90;;;;;;4844217;29;20514;-81
2022/01/03 01:31:42;;;;;;;26.52;3.78;;;8.30;99.90;;;;;;4848776;29;20382;-82
2022/01/03 01:34:10;;;;;;;20.10;3.28;;;8.40;99.90;;;;;;4858020;29;20050;-82
2022/01/03 01:36:37;;;;;;;28.27;3.50;;;8.30;99.90;;;;;;4862388;29;20415;-82
2022/01/03 01:39:05;;;;;;;27.42;3.72;;;8.30;99.90;;;;;;4851080;29;20039;-82
2022/01/03 01:41:37;;;;;;;27.42;4.10;;;8.30;99.90;;;;;;4852010;29;20044;-82
2022/01/03 01:44:07;;;;;;;27.73;4.72;;;8.30;99.90;;;;;;4863424;29;20089;-82
2022/01/03 01:46:34;;;;;;;27.38;4.53;;;8.20;99.90;;;;;;4864609;29;20378;-82
2022/01/03 01:49:04;;;;;;;32.53;4.47;;;8.20;99.90;;;;;;4851038;29;20043;-83
2022/01/03 01:51:34;;;;;;;22.23;3.55;;;8.10;99.90;;;;;;4855178;29;20059;-82
2022/01/03 01:54:04;;;;;;;26.85;4.32;;;8.10;99.90;;;;;;4835678;29;20438;-81
2022/01/03 01:57:00;;;;;;;30.45;3.38;;;8.10;99.90;;;;;;4855732;29;20394;-82
2022/01/03 01:59:41;;;;;;;26.25;3.53;;;8.10;99.90;;;;;;4849722;29;20522;-83
2022/01/03 02:02:09;;;;;;;23.77;3.58;;;8.00;99.90;;;;;;4851742;29;20085;-82
2022/01/03 02:04:47;;;;;;;28.13;4.13;;;8.00;99.90;;;;;;4836699;29;20057;-82
2022/01/03 02:07:42;;;;;;;27.48;3.80;;;8.00;99.90;;;;;;4849494;29;20045;-81
2022/01/03 02:10:13;;;;;;;23.63;3.85;;;8.00;99.90;;;;;;4849053;29;20073;-81
2022/01/03 02:12:46;;;;;;;31.58;4.20;;;8.00;99.90;;;;;;4861542;29;20070;-81
2022/01/03 02:15:15;;;;;;;25.00;3.75;;;8.00;99.90;;;;;;4865036;29;20440;-82
2022/01/03 02:17:44;;;;;;;26.17;3.95;;;8.00;99.90;;;;;;4865335;29;20049;-81
2022/01/03 02:20:14;;;;;;;34.33;4.13;;;7.90;99.90;;;;;;4840177;29;20255;-82
2022/01/03 02:22:41;;;;;;;29.30;5.50;;;7.90;99.90;;;;;;4865766;29;20044;-82
2022/01/03 02:25:10;;;;;;;24.50;3.70;;;7.90;99.90;;;;;;4853941;29;20055;-82
2022/01/03 02:27:37;;;;;;;25.30;4.45;;;7.90;99.90;;;;;;4860018;29;20076;-81
2022/01/03 02:30:12;;;;;;;28.02;4.78;;;7.90;99.90;;;;;;4846297;29;20492;-83
2022/01/03 02:32:38;;;;;;;24.77;3.45;;;7.90;99.90;;;;;;4863166;29;20095;-82
2022/01/03 02:35:05;;;;;;;35.00;3.90;;;7.90;99.90;;;;;;4845919;29;20516;-82
2022/01/03 02:37:32;;;;;;;29.95;4.03;;;7.90;99.90;;;;;;4846647;29;20410;-82
2022/01/03 02:39:58;;;;;;;28.80;3.83;;;7.90;99.90;;;;;;4851128;29;20076;-82
2022/01/03 02:42:25;;;;;;;30.23;4.60;;;8.00;99.90;;;;;;4823288;29;20226;-82
2022/01/03 02:45:08;;;;;;;34.90;5.28;;;7.90;99.90;;;;;;4830001;29;20041;-83
2022/01/03 02:47:34;;;;;;;29.73;4.55;;;7.90;99.90;;;;;;4861547;29;20041;-82
2022/01/03 02:50:00;;;;;;;31.10;4.40;;;7.90;99.90;;;;;;4835864;29;20074;-82
2022/01/03 02:52:26;;;;;;;24.90;4.10;;;7.80;99.90;;;;;;4833212;29;20530;-82
2022/01/03 02:54:52;;;;;;;30.73;4.07;;;7.90;99.90;;;;;;4846528;29;20503;-83
2022/01/03 02:57:24;;;;;;;31.77;4.90;;;7.90;99.90;;;;;;4865663;29;20048;-83
2022/01/03 02:59:57;;;;;;;27.48;4.93;;;8.00;99.90;;;;;;4817331;29;20046;-83
2022/01/03 03:02:26;;;;;;;34.72;4.57;;;7.90;99.90;;;;;;4853689;29;20049;-84
2022/01/03 03:05:01;;;;;;;35.45;3.65;;;7.90;99.90;;;;;;4861523;29;20057;-83
2022/01/03 03:07:29;;;;;;;31.83;4.88;;;7.90;99.90;;;;;;4849540;29;20057;-83
2022/01/03 03:09:56;;;;;;;31.23;4.80;;;7.90;99.90;;;;;;4862184;29;20055;-82
2022/01/03 03:12:23;;;;;;;31.10;4.47;;;7.90;99.90;;;;;;4867611;29;20037;-82
2022/01/03 03:14:49;;;;;;;33.15;4.90;;;7.90;99.90;;;;;;4835272;29;20056;-83
2022/01/03 03:17:18;;;;;;;35.13;5.03;;;8.00;99.90;;;;;;4853009;29;20388;-82
2022/01/03 03:19:58;;;;;;;27.65;4.95;;;8.00;99.90;;;;;;4841302;29;20045;-83
2022/01/03 03:22:27;;;;;;;28.45;4.32;;;7.90;99.90;;;;;;4847192;29;20079;-82
2022/01/03 03:25:16;;;;;;;34.70;4.30;;;8.00;99.90;;;;;;4833543;29;20052;-83
2022/01/03 03:27:44;;;;;;;30.17;4.35;;;7.90;99.90;;;;;;4851556;29;20037;-83
2022/01/03 03:30:35;;;;;;;32.47;4.63;;;7.90;99.90;;;;;;4852063;29;20045;-83
2022/01/03 03:33:13;;;;;;;35.97;5.68;;;7.90;99.90;;;;;;4846516;29;20041;-83
2022/01/03 03:35:40;;;;;;;32.90;4.80;;;7.90;99.90;;;;;;4862575;29;20049;-83
2022/01/03 03:38:06;;;;;;;25.27;3.63;;;7.90;99.90;;;;;;4859532;29;20045;-83
2022/01/03 03:40:32;;;;;;;26.73;4.82;;;7.80;99.90;;;;;;4851307;29;20101;-82
2022/01/03 03:42:58;;;;;;;34.58;5.10;;;7.80;99.90;;;;;;4819265;29;20037;-82
2022/01/03 03:45:24;;;;;;;29.83;4.20;;;7.80;99.90;;;;;;4821330;29;20120;-83
2022/01/03 03:47:51;;;;;;;27.53;4.53;;;7.80;99.90;;;;;;4832826;29;20072;-83
2022/01/03 03:50:18;;;;;;;29.98;4.78;;;7.80;99.90;;;;;;4851911;29;20060;-83
2022/01/03 03:52:44;;;;;;;30.17;4.80;;;7.80;99.90;;;;;;4853348;29;20049;-83
2022/01/03 03:55:11;;;;;;;40.85;5.45;;;7.80;99.90;;;;;;4845664;29;20060;-83
2022/01/03 03:57:37;;;;;;;34.97;4.63;;;7.80;99.90;;;;;;4834765;29;20112;-82
2022/01/03 04:00:09;;;;;;;34.75;4.90;;;7.70;99.90;;;;;;4867667;29;20049;-83
2022/01/03 04:02:34;;;;;;;36.97;5.45;;;7.70;99.90;;;;;;4850067;29;20057;-83
2022/01/03 04:05:01;;;;;;;29.30;4.77;;;7.70;99.90;;;;;;4813885;29;20536;-83
2022/01/03 04:07:27;;;;;;;34.47;4.43;;;7.70;99.90;;;;;;4834323;29;20068;-83
2022/01/03 04:09:53;;;;;;;37.97;4.65;;;7.70;99.90;;;;;;4849113;29;20503;-83
2022/01/03 04:12:19;;;;;;;36.23;4.27;;;7.70;99.90;;;;;;4837184;29;20304;-83
2022/01/03 04:14:45;;;;;;;29.07;4.90;;;7.70;99.90;;;;;;4821377;29;20057;-83
2022/01/03 04:17:12;;;;;;;32.33;4.77;;;7.70;99.90;;;;;;4840313;29;20052;-83
2022/01/03 04:19:38;;;;;;;33.70;4.88;;;7.70;99.90;;;;;;4850323;29;20406;-83
2022/01/03 04:22:04;;;;;;;44.20;6.70;;;7.70;99.90;;;;;;4865288;29;20045;-83
2022/01/03 04:24:30;;;;;;;29.13;4.47;;;7.80;99.90;;;;;;4853214;29;20041;-83
2022/01/03 04:26:56;;;;;;;37.97;4.60;;;7.70;99.90;;;;;;4831714;29;20347;-83
2022/01/03 04:29:22;;;;;;;35.57;5.13;;;7.70;99.90;;;;;;4837075;29;20041;-83
2022/01/03 04:31:47;;;;;;;26.10;4.07;;;7.70;99.90;;;;;;4820788;29;20601;-83
2022/01/03 04:34:13;;;;;;;33.93;4.80;;;7.70;99.90;;;;;;4830948;29;20114;-83
2022/01/03 04:36:40;;;;;;;35.07;5.50;;;7.80;99.90;;;;;;4840783;29;20048;-82
2022/01/03 04:39:06;;;;;;;36.30;6.03;;;7.70;99.90;;;;;;4848253;29;20054;-82
2022/01/03 04:41:33;;;;;;;35.13;6.13;;;7.80;99.90;;;;;;4845510;29;20498;-83
2022/01/03 04:44:00;;;;;;;46.28;6.18;;;7.80;99.90;;;;;;4854487;29;20044;-83
2022/01/03 04:46:26;;;;;;;35.08;5.38;;;7.80;99.90;;;;;;4853913;29;20530;-83
2022/01/03 04:48:52;;;;;;;44.33;5.65;;;7.80;99.90;;;;;;4847940;29;20448;-83
2022/01/03 04:51:18;;;;;;;38.35;5.15;;;7.70;99.90;;;;;;4848142;29;20108;-83
2022/01/03 04:53:47;;;;;;;38.67;5.97;;;7.70;99.90;;;;;;4863620;29;20049;-82
2022/01/03 04:56:14;;;;;;;39.65;5.47;;;7.80;99.90;;;;;;4838964;29;20143;-82
2022/01/03 04:58:40;;;;;;;30.35;5.03;;;7.90;99.90;;;;;;4856854;29;20083;-83
2022/01/03 05:01:07;;;;;;;38.92;5.90;;;7.80;99.90;;;;;;4839567;29;20045;-83
2022/01/03 05:03:32;;;;;;;30.50;5.03;;;7.80;99.90;;;;;;4851867;29;20057;-83
2022/01/03 05:06:00;;;;;;;38.20;5.17;;;7.80;99.90;;;;;;4841137;29;20313;-82
2022/01/03 05:08:25;;;;;;;36.85;5.35;;;7.80;99.90;;;;;;4823473;29;20045;-83
2022/01/03 05:10:51;;;;;;;31.47;5.40;;;7.80;99.90;;;;;;4854138;29;20045;-83
2022/01/03 05:13:17;;;;;;;37.57;5.50;;;7.80;99.90;;;;;;4851804;29;20048;-83
2022/01/03 05:15:42;;;;;;;33.57;4.77;;;7.90;99.90;;;;;;4840109;29;20042;-83
2022/01/03 05:18:08;;;;;;;41.90;5.23;;;7.90;99.90;;;;;;4843106;29;20551;-83
2022/01/03 05:20:34;;;;;;;33.97;4.77;;;7.80;99.90;;;;;;4840795;29;20405;-83
2022/01/03 05:22:59;;;;;;;35.17;6.03;;;7.80;99.90;;;;;;4825363;29;20048;-83
2022/01/03 05:25:25;;;;;;;33.93;5.20;;;7.80;99.90;;;;;;4826823;29;20044;-86
2022/01/03 05:27:51;;;;;;;43.47;6.47;;;7.80;99.90;;;;;;4824064;29;20361;-82
2022/01/03 05:30:17;;;;;;;39.63;6.13;;;7.80;99.90;;;;;;4823097;29;20103;-82
2022/01/03 05:32:42;;;;;;;41.90;4.83;;;7.90;99.90;;;;;;4848228;29;20044;-82
2022/01/03 05:35:09;;;;;;;36.67;5.80;;;7.80;99.90;;;;;;4823527;29;20068;-83
2022/01/03 05:37:34;;;;;;;36.22;5.38;;;7.80;99.90;;;;;;4856671;29;20045;-82
2022/01/03 05:40:00;;;;;;;28.43;5.33;;;7.90;99.90;;;;;;4821198;29;20046;-83
2022/01/03 05:42:26;;;;;;;34.37;5.10;;;7.80;99.90;;;;;;4841631;29;20176;-83
2022/01/03 05:44:51;;;;;;;36.40;5.53;;;7.80;99.90;;;;;;4826195;29;20036;-83
2022/01/03 05:47:17;;;;;;;37.53;5.97;;;7.80;99.90;;;;;;4818520;29;20052;-83
2022/01/03 05:49:43;;;;;;;37.87;5.50;;;7.80;99.90;;;;;;4835287;29;20045;-84
2022/01/03 05:52:09;;;;;;;43.87;5.23;;;7.80;99.90;;;;;;4865891;29;20049;-84
2022/01/03 05:54:35;;;;;;;38.93;5.80;;;7.80;99.90;;;;;;4850910;29;20298;-83
2022/01/03 05:57:01;;;;;;;40.25;5.47;;;7.90;99.90;;;;;;4852252;29;20041;-83
2022/01/03 05:59:27;;;;;;;34.97;5.77;;;7.90;99.90;;;;;;4848751;29;20128;-83
2022/01/03 06:01:54;;;;;;;50.53;6.80;;;7.90;99.90;;;;;;4835534;29;20498;-83
2022/01/03 06:04:34;;;;;;;34.80;5.00;;;7.90;99.90;;;;;;4832641;29;20057;-83
2022/01/03 06:07:05;;;;;;;38.92;6.47;;;7.90;99.90;;;;;;4839636;29;20088;-83
2022/01/03 06:09:31;;;;;;;42.60;6.57;;;7.90;99.90;;;;;;4849736;29;20041;-83
2022/01/03 06:11:58;;;;;;;44.47;5.50;;;7.90;99.90;;;;;;4851006;29;20507;-83
2022/01/03 06:14:24;;;;;;;40.35;5.88;;;7.90;99.90;;;;;;4849706;29;20045;-84
2022/01/03 06:16:51;;;;;;;44.58;5.57;;;7.90;99.90;;;;;;4850028;29;20045;-84
2022/01/03 06:19:17;;;;;;;33.67;6.15;;;7.90;99.90;;;;;;4859306;29;20421;-84
2022/01/03 06:21:43;;;;;;;38.70;6.50;;;7.90;99.90;;;;;;4863578;29;20038;-83
2022/01/03 06:24:11;;;;;;;31.42;5.03;;;7.90;99.90;;;;;;4842957;29;20744;-83
2022/01/03 06:26:38;;;;;;;36.45;5.65;;;7.90;99.90;;;;;;4835554;29;20355;-84
2022/01/03 06:29:04;;;;;;;34.85;4.78;;;7.90;99.90;;;;;;4850412;29;20100;-83
2022/01/03 06:31:31;;;;;;;43.13;5.93;;;7.80;99.90;;;;;;4836589;29;20041;-84
2022/01/03 06:33:57;;;;;;;40.17;6.43;;;7.80;99.90;;;;;;4859056;29;20516;-84
2022/01/03 06:36:23;;;;;;;33.25;4.85;;;7.80;99.90;;;;;;4835695;29;20100;-84
2022/01/03 06:38:49;;;;;;;44.07;6.20;;;7.70;99.90;;;;;;4826740;29;20077;-84
2022/01/03 06:41:15;;;;;;;40.93;5.90;;;7.70;99.90;;;;;;4816207;29;20128;-84
2022/01/03 06:43:41;;;;;;;40.00;7.20;;;7.70;99.90;;;;;;4842711;29;20045;-84
2022/01/03 06:46:06;;;;;;;36.73;6.03;;;7.70;99.90;;;;;;4837257;29;20823;-84
2022/01/03 06:48:32;;;;;;;46.20;6.73;;;7.70;99.90;;;;;;4845775;29;20079;-84
2022/01/03 06:50:58;;;;;;;40.43;5.67;;;7.70;99.90;;;;;;4855367;29;20047;-84
2022/01/03 06:53:24;;;;;;;40.47;6.03;;;7.70;99.90;;;;;;4833534;29;20434;-83
2022/01/03 06:55:49;;;;;;;41.83;5.50;;;7.80;99.90;;;;;;4840391;29;20117;-83
2022/01/03 06:58:15;;;;;;;40.23;5.73;;;7.70;99.90;;;;;;4836548;29;20127;-84
2022/01/03 07:00:41;;;;;;;36.37;5.53;;;7.70;99.90;;;;;;4845112;29;20148;-83
2022/01/03 07:03:06;;;;;;;39.50;5.90;;;7.70;99.90;;;;;;4826154;29;20052;-84
2022/01/03 07:05:32;;;;;;;36.60;5.50;;;7.70;99.90;;;;;;4872512;29;20060;-83
2022/01/03 07:07:59;;;;;;;41.33;5.93;;;7.70;99.90;;;;;;4829515;29;20041;-83
2022/01/03 07:10:25;;;;;;;32.42;5.15;;;7.80;99.90;;;;;;4817821;29;20404;-84
2022/01/03 07:12:52;;;;;;;34.08;4.88;;;7.80;99.90;;;;;;4836134;29;20045;-83
2022/01/03 07:20:51;;;;;;;38.65;6.45;;;7.70;99.90;;;;;;4860850;29;20219;-84
2022/01/03 07:23:18;;;;;;;43.42;5.07;;;7.70;99.90;;;;;;4847429;29;20592;-84
2022/01/03 07:25:44;;;;;;;38.80;5.20;;;7.60;99.90;;;;;;4860157;29;20171;-84
2022/01/03 07:28:11;;;;;;;32.67;5.65;;;7.60;99.90;;;;;;4830791;29;20041;-84
2022/01/03 07:30:37;;;;;;;44.72;6.13;;;7.70;99.90;;;;;;4844942;29;20250;-84
2022/01/03 07:33:03;;;;;;;41.35;5.70;;;7.70;99.90;;;;;;4832225;29;20120;-84
2022/01/03 07:35:29;;;;;;;36.67;5.37;;;7.70;99.90;;;;;;4849466;29;20076;-84
2022/01/03 07:37:55;;;;;;;40.27;5.97;;;7.70;99.90;;;;;;4820121;29;20125;-84
2022/01/03 07:40:21;;;;;;;35.50;5.00;;;7.70;99.90;;;;;;4819022;29;20486;-84
2022/01/03 07:42:47;;;;;;;47.88;5.28;;;7.70;99.90;;;;;;4842048;29;20305;-84
2022/01/03 07:45:13;;;;;;;42.10;5.13;;;7.70;99.90;;;;;;4860496;29;20051;-84
2022/01/03 07:47:40;;;;;;;39.55;4.72;;;7.70;99.90;;;;;;4851205;29;20109;-84
2022/01/03 07:50:08;;;;;;;30.65;5.32;;;7.70;99.90;;;;;;4844627;29;20470;-84
2022/01/03 07:52:34;;;;;;;37.33;5.63;;;7.70;99.90;;;;;;4854309;29;20498;-84
2022/01/03 07:55:00;;;;;;;35.35;5.35;;;7.70;99.90;;;;;;4820871;29;20041;-85
2022/01/03 07:57:26;;;;;;;44.10;5.20;;;7.70;99.90;;;;;;4844302;29;20510;-84
2022/01/03 07:59:51;;;;;;;38.27;4.90;;;7.80;99.90;;;;;;4835012;29;20041;-85
2022/01/03 08:02:18;;;;;;;37.00;5.53;;;7.80;99.90;;;;;;4830262;29;20048;-84
2022/01/03 08:04:45;;;;;;;41.80;5.72;;;7.80;99.90;;;;;;4828770;29;20057;-84
2022/01/03 08:07:11;;;;;;;40.58;5.93;;;7.80;99.90;;;;;;4818221;29;20049;-85
2022/01/03 08:09:36;;;;;;;31.97;5.17;;;7.90;99.90;;;;;;4827099;29;20049;-85
2022/01/03 08:12:03;;;;;;;34.17;5.10;;;7.90;99.90;;;;;;4845544;29;20487;-85
2022/01/03 08:14:29;;;;;;;34.25;4.70;;;7.90;99.90;;;;;;4847680;29;20060;-84
2022/01/03 08:16:54;;;;;;;43.57;6.30;;;8.00;99.90;;;;;;4828319;29;20124;-85
2022/01/03 08:19:20;;;;;;;43.13;5.20;;;7.90;99.90;;;;;;4831512;29;20041;-85
2022/01/03 08:21:46;;;;;;;43.13;5.47;;;8.00;99.90;;;;;;4821861;29;20437;-84
2022/01/03 08:24:12;;;;;;;36.03;5.27;;;8.10;99.90;;;;;;4832749;29;20487;-85
2022/01/03 08:26:38;;;;;;;32.43;5.33;;;8.10;99.90;;;;;;4843231;29;20041;-85
2022/01/03 08:29:05;;;;;;;36.88;5.57;;;8.10;99.90;;;;;;4855151;29;20118;-85
2022/01/03 08:31:31;;;;;;;45.40;5.93;;;8.10;99.90;;;;;;4844318;29;20048;-85
2022/01/03 08:33:57;;;;;;;42.03;5.15;;;8.10;99.90;;;;;;4813506;29;20052;-84
2022/01/03 08:36:23;;;;;;;28.43;4.43;;;8.10;99.90;;;;;;4824318;29;20410;-85
2022/01/03 08:38:49;;;;;;;28.33;6.00;;;8.10;99.90;;;;;;4829066;29;20389;-85
2022/01/03 08:41:15;;;;;;;27.67;4.68;;;8.10;99.90;;;;;;4829978;29;20128;-84
2022/01/03 08:43:41;;;;;;;29.77;4.33;;;8.10;99.90;;;;;;4819135;29;20049;-84
2022/01/03 08:46:06;;;;;;;33.33;4.67;;;8.10;99.90;;;;;;4818675;29;20048;-84
2022/01/03 08:48:33;;;;;;;36.20;5.30;;;8.10;99.90;;;;;;4826388;29;20049;-84
2022/01/03 08:50:59;;;;;;;38.08;4.85;;;8.10;99.90;;;;;;4841856;29;20049;-84
2022/01/03 08:53:27;;;;;;;38.47;5.97;;;8.10;99.90;;;;;;4848181;29;20409;-84
2022/01/03 08:55:57;;;;;;;37.00;5.10;;;8.10;99.90;;;;;;4818320;29;20383;-85
2022/01/03 08:58:26;;;;;;;36.03;4.60;;;8.10;99.90;;;;;;4847851;29;20096;-84
2022/01/03 09:00:52;;;;;;;39.03;6.15;;;8.10;99.90;;;;;;4831160;29;20037;-84
2022/01/03 09:03:18;;;;;;;33.38;4.68;;;8.10;99.90;;;;;;4842487;29;20060;-84
2022/01/03 09:05:45;;;;;;;36.17;5.22;;;8.20;99.90;;;;;;4829815;29;20057;-85
2022/01/03 09:08:12;;;;;;;40.80;6.13;;;8.20;99.90;;;;;;4834154;29;20394;-84
2022/01/03 09:10:39;;;;;;;31.52;4.88;;;8.20;99.90;;;;;;4834597;29;20046;-85
2022/01/03 09:13:05;;;;;;;32.13;4.95;;;8.20;99.90;;;;;;4819872;29;20128;-86
2022/01/03 09:15:31;;;;;;;35.63;5.23;;;8.30;99.90;;;;;;4852480;29;20110;-85
2022/01/03 09:17:57;;;;;;;30.48;5.32;;;8.30;99.90;;;;;;4827666;29;20410;-85
2022/01/03 09:20:23;;;;;;;39.00;5.50;;;8.20;99.90;;;;;;4857381;29;20041;-85
2022/01/03 09:22:51;;;;;;;38.37;5.83;;;8.20;99.90;;;;;;4841321;29;20135;-85
2022/01/03 09:30:30;;;;;;;36.28;4.97;;;8.30;99.90;;;;;;4857413;29;20681;-85
2022/01/03 09:32:56;;;;;;;32.65;5.50;;;8.30;99.90;;;;;;4811743;29;20041;-84
2022/01/03 09:35:22;;;;;;;38.20;5.63;;;8.30;99.90;;;;;;4845301;29;20426;-84
2022/01/03 09:37:48;;;;;;;36.93;5.17;;;8.40;99.90;;;;;;4814315;29;20448;-84
2022/01/03 09:40:15;;;;;;;33.13;6.05;;;8.40;99.90;;;;;;4843924;29;20557;-84
2022/01/03 09:42:43;;;;;;;28.90;4.50;;;8.40;99.90;;;;;;4828605;29;20064;-84
2022/01/03 09:45:15;;;;;;;33.70;5.43;;;8.40;99.90;;;;;;4854846;29;20080;-85
2022/01/03 09:47:44;;;;;;;36.15;5.50;;;8.40;99.90;;;;;;4842386;29;20045;-84
2022/01/03 09:50:12;;;;;;;27.20;4.00;;;8.50;99.90;;;;;;4829247;29;20053;-84
2022/01/03 09:52:39;;;;;;;32.15;4.72;;;8.50;99.90;;;;;;4825677;29;20068;-84
2022/01/03 09:55:06;;;;;;;32.78;4.78;;;8.50;99.90;;;;;;4855770;29;20447;-85
2022/01/03 09:57:32;;;;;;;42.42;5.55;;;8.50;99.90;;;;;;4829541;29;20037;-84
2022/01/03 09:59:59;;;;;;;31.60;4.10;;;8.50;99.90;;;;;;4829531;29;20036;-85
2022/01/03 10:02:25;;;;;;;24.95;4.32;;;8.50;99.90;;;;;;4821715;29;20041;-85
2022/01/03 10:04:51;;;;;;;34.92;4.63;;;8.60;99.90;;;;;;4826187;29;20049;-85
2022/01/03 10:07:19;;;;;;;34.05;4.50;;;8.50;99.90;;;;;;4838153;29;20072;-85
2022/01/03 10:09:46;;;;;;;30.17;4.45;;;8.50;99.90;;;;;;4839135;29;20049;-85
2022/01/03 10:12:14;;;;;;;33.22;5.03;;;8.60;99.90;;;;;;4840799;29;20590;-84
2022/01/03 10:14:40;;;;;;;37.90;5.88;;;8.60;99.90;;;;;;4846787;29;20080;-84
2022/01/03 10:17:07;;;;;;;33.20;6.28;;;8.70;99.90;;;;;;4830984;29;20081;-84
2022/01/03 10:20:10;;;;;;;30.05;5.22;;;8.70;99.90;;;;;;4829594;29;20044;-85
2022/01/03 10:22:37;;;;;;;35.53;5.40;;;8.70;99.90;;;;;;4786026;29;20091;-84
2022/01/03 10:25:15;;;;;;;44.10;5.60;;;8.70;99.90;;;;;;4811134;29;20099;-85
2022/01/03 10:27:50;;;;;;;34.60;5.70;;;8.80;99.90;;;;;;4851493;29;20049;-85
2022/01/03 10:30:28;;;;;;;31.30;4.85;;;8.80;99.90;;;;;;4860617;29;20175;-85
2022/01/03 10:32:54;;;;;;;32.38;5.13;;;8.80;99.90;;;;;;4826983;29;20124;-84
2022/01/03 10:35:20;;;;;;;36.20;5.50;;;8.90;99.90;;;;;;4824495;29;20135;-85
2022/01/03 10:37:46;;;;;;;30.42;5.22;;;8.80;99.90;;;;;;4836090;29;20037;-84
2022/01/03 10:40:29;;;;;;;32.83;4.43;;;8.80;99.90;;;;;;4822350;29;20105;-84
2022/01/03 10:43:14;;;;;;;30.80;4.40;;;8.90;99.90;;;;;;4829753;29;20052;-85
2022/01/03 10:45:41;;;;;;;34.53;5.40;;;8.90;99.90;;;;;;4863303;29;20048;-85
2022/01/03 10:48:28;;;;;;;31.08;5.35;;;8.90;99.90;;;;;;4824807;29;20518;-84
2022/01/03 10:50:56;;;;;;;37.80;5.53;;;8.90;99.90;;;;;;4844306;29;20048;-85
2022/01/03 10:53:32;;;;;;;32.10;4.65;;;9.00;99.90;;;;;;4847822;29;20041;-84
2022/01/03 10:55:58;;;;;;;27.17;5.15;;;9.00;99.90;;;;;;4848543;29;20076;-85
2022/01/03 10:58:32;;;;;;;34.63;5.43;;;9.00;99.90;;;;;;4828904;29;20045;-84
2022/01/03 11:00:59;;;;;;;32.17;6.05;;;9.10;99.90;;;;;;4824318;29;20549;-85
2022/01/03 11:03:37;;;;;;;33.78;4.75;;;9.10;99.90;;;;;;4829640;29;20057;-85
2022/01/03 11:11:49;;;;;;;30.33;4.65;;;9.10;99.90;;;;;;4839223;29;20410;-84
2022/01/03 11:14:39;;;;;;;33.60;5.70;;;9.10;99.90;;;;;;4840786;29;20104;-84
2022/01/03 11:17:22;;;;;;;33.25;5.22;;;9.20;99.90;;;;;;4843002;29;20041;-84
2022/01/03 11:19:48;;;;;;;26.63;4.63;;;9.20;99.90;;;;;;4845493;29;20105;-84
2022/01/03 11:22:37;;;;;;;25.50;4.30;;;9.20;99.90;;;;;;4840421;29;20088;-84
2022/01/03 11:25:05;;;;;;;30.17;4.82;;;9.20;99.90;;;;;;4841528;29;20041;-84
2022/01/03 11:27:34;;;;;;;26.33;4.35;;;9.20;99.90;;;;;;4830935;29;20052;-85
2022/01/03 11:30:00;;;;;;;29.65;4.55;;;9.30;99.90;;;;;;4830257;29;20127;-85
2022/01/03 11:32:26;;;;;;;26.92;4.80;;;9.30;99.90;;;;;;4826693;29;20045;-86
2022/01/03 11:34:55;;;;;;;35.40;5.10;;;9.30;99.90;;;;;;4827747;29;20053;-85
2022/01/03 11:37:21;;;;;;;35.50;6.63;;;9.30;99.90;;;;;;4842988;29;20158;-84
2022/01/03 11:39:48;;;;;;;30.17;4.60;;;9.30;99.90;;;;;;4812580;29;20045;-85
2022/01/03 11:42:14;;;;;;;24.80;4.57;;;9.30;99.90;;;;;;4827772;29;20618;-84
2022/01/03 11:44:40;;;;;;;26.77;4.05;;;9.40;99.90;;;;;;4819662;29;20418;-84
2022/01/03 11:47:08;;;;;;;28.85;4.35;;;9.40;99.90;;;;;;4848152;29;20048;-84
2022/01/03 11:49:37;;;;;;;34.75;4.63;;;9.50;99.90;;;;;;4809412;29;20048;-85
2022/01/03 11:52:09;;;;;;;34.40;5.13;;;9.50;99.90;;;;;;4820256;29;20057;-85
2022/01/03 11:54:36;;;;;;;27.67;4.50;;;9.50;99.90;;;;;;4835732;29;20144;-86
2022/01/03 12:05:52;;;;;;;31.83;4.90;;;9.50;99.90;;;;;;4861941;29;20056;-85
2022/01/03 12:08:21;;;;;;;31.38;5.68;;;9.50;99.90;;;;;;4810316;29;20038;-84
2022/01/03 12:10:47;;;;;;;29.33;4.97;;;9.50;99.90;;;;;;4840459;29;20443;-85
2022/01/03 12:13:14;;;;;;;36.75;5.15;;;9.50;99.90;;;;;;4813108;29;20141;-85
2022/01/03 12:15:41;;;;;;;26.50;4.85;;;9.50;99.90;;;;;;4841151;29;20067;-85
2022/01/03 12:18:30;;;;;;;28.10;3.90;;;9.50;99.90;;;;;;4822177;29;20052;-85
2022/01/03 12:20:56;;;;;;;24.45;3.92;;;9.50;99.90;;;;;;4843671;29;20077;-86
2022/01/03 12:23:40;;;;;;;25.52;4.32;;;9.50;99.90;;;;;;4841222;29;20053;-86
2022/01/03 12:26:14;;;;;;;33.05;5.10;;;9.50;99.90;;;;;;4849440;29;20529;-85
2022/01/03 12:29:07;;;;;;;24.77;4.47;;;9.60;99.90;;;;;;4833861;29;20502;-86
2022/01/03 12:32:01;;;;;;;27.58;4.07;;;9.60;99.90;;;;;;4824377;29;20145;-86
2022/01/03 12:34:26;;;;;;;31.90;4.22;;;9.60;99.90;;;;;;4833885;29;20081;-85
2022/01/03 12:37:18;;;;;;;30.93;4.37;;;9.70;99.90;;;;;;4834724;29;20124;-85
2022/01/03 12:40:02;;;;;;;28.63;4.22;;;9.60;99.90;;;;;;4841145;29;20040;-86
2022/01/03 12:42:50;;;;;;;36.08;5.75;;;9.60;99.90;;;;;;4841480;29;20041;-85
2022/01/03 12:45:17;;;;;;;29.50;4.72;;;9.60;99.90;;;;;;4846249;29;20049;-85
2022/01/03 12:47:43;;;;;;;27.75;5.07;;;9.50;99.90;;;;;;4846077;29;20049;-85
2022/01/03 12:50:28;;;;;;;37.43;4.77;;;9.50;99.90;;;;;;4813957;29;20448;-85
2022/01/03 12:52:57;;;;;;;32.53;5.50;;;9.50;99.90;;;;;;4843277;29;20573;-86
2022/01/03 12:55:38;;;;;;;28.33;5.03;;;9.50;99.90;;;;;;4845610;29;20045;-85
2022/01/03 12:58:18;;;;;;;30.38;4.90;;;9.50;99.90;;;;;;4846543;29;20069;-85
2022/01/03 13:00:56;;;;;;;32.08;4.90;;;9.40;99.90;;;;;;4845572;29;20127;-84
2022/01/03 13:03:49;;;;;;;31.85;5.15;;;9.40;99.90;;;;;;4832940;29;20101;-83
2022/01/03 13:06:24;;;;;;;34.38;5.03;;;9.40;99.90;;;;;;4840726;29;20060;-85
2022/01/03 13:08:56;;;;;;;33.88;5.63;;;9.40;99.90;;;;;;4839836;29;20045;-85
2022/01/03 13:11:29;;;;;;;30.27;4.68;;;9.40;99.90;;;;;;4842520;29;20101;-83
2022/01/03 13:14:22;;;;;;;28.40;4.40;;;9.40;99.90;;;;;;4842751;29;20052;-85
2022/01/03 13:16:58;;;;;;;32.28;4.93;;;9.40;99.90;;;;;;4851766;29;20589;-86
2022/01/03 13:19:33;;;;;;;31.33;4.85;;;9.40;99.90;;;;;;4828294;29;20045;-85
2022/01/03 13:22:06;;;;;;;41.38;5.10;;;9.40;99.90;;;;;;4839680;29;20077;-85
2022/01/03 13:24:40;;;;;;;33.40;4.97;;;9.30;99.90;;;;;;4854704;29;20041;-86
2022/01/03 13:27:11;;;;;;;35.33;5.95;;;9.30;99.90;;;;;;4841196;29;20533;-85